• Join FlightAware (Why Join?)
  • Login
  • US Flag 
08:02AM EDT


 

Airport Tracker/Info


-or-


 

Live Flight TrackerFlight Track Log ✈ CNS128 ✈ 28-Feb-2014 ✈ KGAI - KBED

Flight Track Log - Related Links

Times and Time Zones

All times are in EST time to prevent confusion due to time zone crossing. See the CNS128 flight status page for this flight to view local times or setup timezone preferences in your user account.

Time Position Orientation Groundspeed Altitude Reporting Facility
EST Latitude Longitude Course Direction KTS MPH feet Rate Location/Type
08:29AM 39.2000 -77.1667 96° East 122 140 2,400  Level Potomac TRACON
08:30AM 39.2333 -77.1667 360° North 117 135 4,600 1,740 Climbing Potomac TRACON
08:32AM 39.2814 -77.1489 16° North 149 171 7,900 1,500 Climbing Washington Center
08:33AM 39.2939 -77.0928 74° East 159 183 9,400 1,680 Climbing Washington Center
08:34AM 39.4384 -76.7247 96° East  Level Estimated
08:34AM 39.3103 -77.0186 74° East 178 205 11,400  Level Washington Center
08:35AM 39.3175 -76.9492 82° East 195 224 12,500 780 Climbing Washington Center
08:36AM 39.2994 -76.8692 106° East 229 264 13,000 480 Climbing Washington Center
08:37AM 39.2772 -76.7739 107° East 271 312 13,500 840 Climbing Washington Center
08:38AM 39.2567 -76.6847 107° East 265 305 14,800 660 Climbing Washington Center
08:39AM 39.2356 -76.5925 106° East 264 304 14,900 60 Climbing Washington Center
08:40AM 39.2072 -76.4681 106° East 297 342 15,000  Climbing Washington Center
08:41AM 39.1797 -76.3636 109° East 304 350 15,000  Level Washington Center
08:42AM 39.1578 -76.2575 105° East 305 351 15,000 60 Level Washington Center
08:43AM 39.1603 -76.1406 88° East 315 362 15,200 420 Climbing Washington Center
08:44AM 39.1736 -76.0358 81° East 302 348 15,900 300 Climbing Washington Center
08:45AM 39.1869 -75.9294 81° East 301 346 15,900  Level Washington Center
08:46AM 39.2231 -75.8339 64° Northeast 304 350 16,000 480 Climbing Washington Center
08:47AM 39.2831 -75.7636 42° Northeast 288 331 17,000 780 Climbing Washington Center
08:48AM 39.3483 -75.6819 44° Northeast 276 318 17,700 900 Climbing Washington Center
08:49AM 39.4058 -75.6228 38° Northeast 267 307 18,900 1,200 Climbing Washington Center
08:50AM 39.4575 -75.5681 39° Northeast 241 277 20,200 1,200 Climbing Washington Center
08:51AM 39.5047 -75.5136 42° Northeast 230 265 21,400 1,020 Climbing Washington Center
08:52AM 39.5519 -75.4592 42° Northeast 229 264 22,300 840 Climbing Washington Center
08:53AM 39.6011 -75.4031 41° Northeast 232 267 23,200 840 Climbing Washington Center
08:55AM 39.6617 -75.3342 41° Northeast 238 274 24,200 720 Climbing Washington Center
08:56AM 39.7103 -75.2661 47° Northeast 255 293 24,800 360 Climbing Washington Center
08:57AM 39.7583 -75.1872 52° Northeast 276 318 25,000 60 Climbing Washington Center
08:58AM 39.8161 -75.1000 49° Northeast 291 335 25,000  Level Washington Center
08:59AM 39.8747 -75.0075 50° Northeast 308 354 25,000  Level Washington Center
09:00AM 39.9317 -74.9189 50° Northeast 318 366 25,000  Level Washington Center
09:01AM 39.9922 -74.8233 50° Northeast 317 365 25,000  Level Washington Center
09:02AM 40.0397 -74.7494 50° Northeast 315 362 25,000  Level Washington Center
09:03AM 40.1078 -74.6414 51° Northeast 318 366 25,000  Level Washington Center
09:04AM 40.1581 -74.5422 56° Northeast 326 375 25,000  Level Washington Center
09:05AM 40.2097 -74.4442 55° Northeast 327 376 25,000  Level Washington Center
09:06AM 40.2606 -74.3442 56° Northeast 329 379 25,000  Level Washington Center
09:07AM 40.3117 -74.2456 56° Northeast 329 379 25,000  Level Washington Center
09:08AM 40.3744 -74.1247 56° Northeast 326 375 25,000  Level New York Center
09:09AM 40.4250 -74.0261 56° Northeast 326 375 25,000 -240 Level New York Center
09:10AM 40.4758 -73.9250 57° Northeast 326 375 24,600 -660 Descending New York Center
09:11AM 40.5306 -73.8183 56° Northeast 331 381 23,700 -960 Descending New York Center
09:12AM 40.5853 -73.7142 55° Northeast 344 396 22,700 -1,020 Descending New York Center
09:14AM 40.7136 -73.4600 56° Northeast 350 403 20,400 -1,020 Descending Boston Center
09:15AM 40.7689 -73.3517 56° Northeast 352 405 19,400 -720 Descending Boston Center
09:16AM 40.8300 -73.2603 49° Northeast 344 396 19,000 -420 Descending Boston Center
09:17AM 40.8978 -73.1817 41° Northeast 326 375 18,600 -600 Descending Boston Center
09:18AM 40.9681 -73.0992 42° Northeast 332 382 17,900 -480 Descending Boston Center
09:19AM 41.0389 -73.0156 42° Northeast 337 388 17,700 -480 Descending Boston Center
09:20AM 41.1094 -72.9333 41° Northeast 337 388 17,000 -720 Descending Boston Center
09:21AM 41.1783 -72.8519 42° Northeast 332 382 16,300 -720 Descending Boston Center
09:22AM 41.2456 -72.7725 42° Northeast 325 374 15,600 -660 Descending Boston Center
09:24AM 41.3169 -72.6900 41° Northeast 318 366 15,000 -300 Descending Boston Center
09:25AM 41.3944 -72.6575 17° North 267 307 15,000  Level Boston Center
09:26AM 41.4650 -72.6231 20° North 268 308 15,000  Level Boston Center
09:27AM 41.5292 -72.5600 36° Northeast 284 327 15,000 -300 Level Boston Center
09:28AM 41.5944 -72.5017 34° Northeast 283 326 14,400 -840 Descending Boston Center
09:29AM 41.6700 -72.4311 35° Northeast 303 349 13,300 -1,080 Descending Boston Center
09:30AM 41.7389 -72.3669 35° Northeast 304 350 12,300 -900 Descending Boston Center
09:30AM 41.7383 -72.3661 132° Southeast 297 342 12,400 -960 Climbing Boston Center
09:30AM 41.7797 -72.3317 32° Northeast 283 326 11,700 -1,140 Descending Boston Center
09:31AM 41.8039 -72.3078 36° Northeast 285 328 11,300 -600 Descending Boston Center
09:31AM 41.8433 -72.2706 35° Northeast 280 322 11,100 -300 Descending Boston Center
09:32AM 41.8667 -72.2508 32° Northeast 273 314 11,000 -420 Descending Boston Center
09:32AM 41.9067 -72.2122 36° Northeast 264 304 10,700 -600 Descending Boston Center
09:33AM 41.9317 -72.1897 34° Northeast 267 307 10,400 -600 Descending Boston Center
09:33AM 41.9697 -72.1533 35° Northeast 274 315 10,100 -420 Descending Boston Center
09:34AM 41.9939 -72.1322 33° Northeast 271 312 10,000 -120 Descending Boston Center
09:34AM 42.0306 -72.0967 36° Northeast 262 302 10,000 -540 Level Boston Center
09:35AM 42.0536 -72.0764 33° Northeast 262 302 9,500 -1,200 Descending Boston Center
09:35AM 42.0906 -72.0425 34° Northeast 260 299 8,800 -1,200 Descending Boston Center
09:36AM 42.1125 -72.0208 36° Northeast 261 300 8,300 -1,200 Descending Boston Center
09:36AM 42.1469 -71.9842 38° Northeast 251 289 7,600 -1,320 Descending Boston Center
09:37AM 42.1692 -71.9572 42° Northeast 245 282 7,000 -1,200 Descending Boston Center
09:38AM 42.2181 -71.9039 39° Northeast 240 276 5,900 -1,020 Descending Boston Center
09:39AM 42.2703 -71.8469 39° Northeast 227 261 5,000 -480 Descending Boston Center
09:40AM 42.3175 -71.7931 40° Northeast 223 257 5,000  Level Boston Center
09:41AM 42.3658 -71.7344 42° Northeast 228 262 5,000 -300 Level Boston Center
09:42AM 42.3842 -71.6483 74° East 238 274 4,400 -960 Descending Boston Center
09:43AM 42.4000 -71.5667 75° East 232 267 3,100 -840 Descending KA90
09:44AM 42.4167 -71.4667 77° East 219 252 2,700 -600 Descending KA90
09:45AM 42.4333 -71.4000 71° East 216 249 1,900 -600 Descending KA90
09:46AM 42.4500 -71.3333 71° East 188 216 1,600 -180 Descending KA90
09:47AM 42.4333 -71.2667 109° East 163 188 1,600 -240 Level KA90
09:48AM 42.4667 -71.2333 36° Northeast 91 105 1,100 -480 Descending KA90
09:51AM 42.4667 -71.2833 324° Northwest  Level FlightAware Approximate